Mertens, Texas
Current Conditions -  °F | °C
As of 4:15 AM on Saturday 20 Dec 2014 (Local Time) from KINJ Reporting Station
Haze Haze  
Wind Chill: 42°   Ceiling: 2300
Heat Index: 47°   Visibility: 5mi
Dew Point: 44°   Wind: 9mph
Humidity: 90%   Direction: 340°NNW
Pressure: 30.2"   Gusts: NA
Location:  32.06°N, 96.9°W
Report Text: KINJ 201015Z AUTO 34008KT 5SM BR OVC023 08/07 A3020 RMK AO2 T00810065
Loading
Personal Weather Stations






























Interactive Weather Map New forecast layout! Learn more

10-Day Weather Forecast

Advertisements
Track Severe Weather on mobile